sensor_id;sensor_type;location;lat;lon;timestamp;P1;durP1;ratioP1;P2;durP2;ratioP2
49678;SDS011;35570;48.218;16.326;2024-03-29T00:00:42;2.42;;;0.50;;
49678;SDS011;35570;48.218;16.326;2024-03-29T00:03:09;2.00;;;0.30;;
49678;SDS011;35570;48.218;16.326;2024-03-29T00:05:35;0.88;;;0.30;;
49678;SDS011;35570;48.218;16.326;2024-03-29T00:08:03;2.00;;;0.43;;
49678;SDS011;35570;48.218;16.326;2024-03-29T00:10:29;0.70;;;0.40;;
49678;SDS011;35570;48.218;16.326;2024-03-29T00:12:54;0.80;;;0.30;;
49678;SDS011;35570;48.218;16.326;2024-03-29T00:15:20;0.75;;;0.40;;
49678;SDS011;35570;48.218;16.326;2024-03-29T00:17:46;1.15;;;0.30;;
49678;SDS011;35570;48.218;16.326;2024-03-29T00:20:11;0.60;;;0.10;;
49678;SDS011;35570;48.218;16.326;2024-03-29T00:22:37;1.23;;;0.20;;
49678;SDS011;35570;48.218;16.326;2024-03-29T00:25:03;0.25;;;0.10;;
49678;SDS011;35570;48.218;16.326;2024-03-29T00:27:29;1.05;;;0.20;;
49678;SDS011;35570;48.218;16.326;2024-03-29T00:29:55;2.38;;;0.40;;
49678;SDS011;35570;48.218;16.326;2024-03-29T00:32:21;1.15;;;0.43;;
49678;SDS011;35570;48.218;16.326;2024-03-29T00:34:50;1.52;;;0.80;;
49678;SDS011;35570;48.218;16.326;2024-03-29T00:37:17;2.78;;;0.75;;
49678;SDS011;35570;48.218;16.326;2024-03-29T00:39:44;1.38;;;0.50;;
49678;SDS011;35570;48.218;16.326;2024-03-29T00:42:10;1.65;;;0.90;;
49678;SDS011;35570;48.218;16.326;2024-03-29T00:44:41;1.38;;;0.73;;
49678;SDS011;35570;48.218;16.326;2024-03-29T00:47:07;0.75;;;0.57;;
49678;SDS011;35570;48.218;16.326;2024-03-29T00:49:33;2.15;;;0.50;;
49678;SDS011;35570;48.218;16.326;2024-03-29T00:51:59;1.27;;;0.80;;
49678;SDS011;35570;48.218;16.326;2024-03-29T00:54:26;1.33;;;0.60;;
49678;SDS011;35570;48.218;16.326;2024-03-29T00:56:51;0.93;;;0.60;;
49678;SDS011;35570;48.218;16.326;2024-03-29T00:59:17;1.55;;;0.60;;
49678;SDS011;35570;48.218;16.326;2024-03-29T01:01:44;1.83;;;0.60;;
49678;SDS011;35570;48.218;16.326;2024-03-29T01:04:10;1.10;;;0.60;;
49678;SDS011;35570;48.218;16.326;2024-03-29T01:06:36;1.23;;;0.65;;
49678;SDS011;35570;48.218;16.326;2024-03-29T01:09:03;1.52;;;0.45;;
49678;SDS011;35570;48.218;16.326;2024-03-29T01:11:29;1.50;;;0.90;;
49678;SDS011;35570;48.218;16.326;2024-03-29T01:13:55;1.25;;;0.75;;
49678;SDS011;35570;48.218;16.326;2024-03-29T01:16:21;1.45;;;0.80;;
49678;SDS011;35570;48.218;16.326;2024-03-29T01:18:47;1.95;;;0.70;;
49678;SDS011;35570;48.218;16.326;2024-03-29T01:21:13;0.77;;;0.50;;
49678;SDS011;35570;48.218;16.326;2024-03-29T01:23:39;1.15;;;0.68;;
49678;SDS011;35570;48.218;16.326;2024-03-29T01:26:05;0.73;;;0.25;;
49678;SDS011;35570;48.218;16.326;2024-03-29T01:28:31;0.60;;;0.20;;
49678;SDS011;35570;48.218;16.326;2024-03-29T01:30:57;1.33;;;0.30;;
49678;SDS011;35570;48.218;16.326;2024-03-29T01:33:23;1.02;;;0.25;;
49678;SDS011;35570;48.218;16.326;2024-03-29T01:35:49;0.73;;;0.28;;
49678;SDS011;35570;48.218;16.326;2024-03-29T01:38:15;0.60;;;0.30;;
49678;SDS011;35570;48.218;16.326;2024-03-29T01:40:41;1.00;;;0.50;;
49678;SDS011;35570;48.218;16.326;2024-03-29T01:43:07;2.90;;;0.60;;
49678;SDS011;35570;48.218;16.326;2024-03-29T01:45:38;1.15;;;0.38;;
49678;SDS011;35570;48.218;16.326;2024-03-29T01:48:06;0.63;;;0.25;;
49678;SDS011;35570;48.218;16.326;2024-03-29T01:50:32;1.67;;;0.43;;
49678;SDS011;35570;48.218;16.326;2024-03-29T01:52:59;0.98;;;0.30;;
49678;SDS011;35570;48.218;16.326;2024-03-29T01:55:26;0.95;;;0.20;;
49678;SDS011;35570;48.218;16.326;2024-03-29T01:57:56;0.52;;;0.30;;
49678;SDS011;35570;48.218;16.326;2024-03-29T02:00:24;0.80;;;0.32;;
49678;SDS011;35570;48.218;16.326;2024-03-29T02:02:52;2.05;;;0.50;;
49678;SDS011;35570;48.218;16.326;2024-03-29T02:05:18;2.17;;;0.50;;
49678;SDS011;35570;48.218;16.326;2024-03-29T02:07:45;1.15;;;0.60;;
49678;SDS011;35570;48.218;16.326;2024-03-29T02:10:12;3.20;;;0.70;;
49678;SDS011;35570;48.218;16.326;2024-03-29T02:12:39;1.38;;;0.50;;
49678;SDS011;35570;48.218;16.326;2024-03-29T02:15:05;0.80;;;0.50;;
49678;SDS011;35570;48.218;16.326;2024-03-29T02:17:31;1.20;;;0.70;;
49678;SDS011;35570;48.218;16.326;2024-03-29T02:19:58;1.00;;;0.50;;
49678;SDS011;35570;48.218;16.326;2024-03-29T02:22:24;2.92;;;0.80;;
49678;SDS011;35570;48.218;16.326;2024-03-29T02:24:53;1.35;;;0.57;;
49678;SDS011;35570;48.218;16.326;2024-03-29T02:27:20;2.25;;;0.70;;
49678;SDS011;35570;48.218;16.326;2024-03-29T02:29:47;1.40;;;0.50;;
49678;SDS011;35570;48.218;16.326;2024-03-29T02:32:13;1.13;;;0.57;;
49678;SDS011;35570;48.218;16.326;2024-03-29T02:34:39;1.98;;;0.60;;
49678;SDS011;35570;48.218;16.326;2024-03-29T02:37:05;1.13;;;0.52;;
49678;SDS011;35570;48.218;16.326;2024-03-29T02:39:31;1.20;;;0.55;;
49678;SDS011;35570;48.218;16.326;2024-03-29T02:41:57;1.15;;;0.50;;
49678;SDS011;35570;48.218;16.326;2024-03-29T02:44:26;0.85;;;0.40;;
49678;SDS011;35570;48.218;16.326;2024-03-29T02:46:54;0.43;;;0.20;;
49678;SDS011;35570;48.218;16.326;2024-03-29T02:49:19;0.98;;;0.40;;
49678;SDS011;35570;48.218;16.326;2024-03-29T02:51:45;0.93;;;0.50;;
49678;SDS011;35570;48.218;16.326;2024-03-29T02:54:11;1.80;;;0.75;;
49678;SDS011;35570;48.218;16.326;2024-03-29T02:56:36;1.20;;;0.60;;
49678;SDS011;35570;48.218;16.326;2024-03-29T02:59:02;2.53;;;0.80;;
49678;SDS011;35570;48.218;16.326;2024-03-29T03:01:28;1.30;;;0.50;;
49678;SDS011;35570;48.218;16.326;2024-03-29T03:03:53;1.75;;;0.68;;
49678;SDS011;35570;48.218;16.326;2024-03-29T03:06:19;0.82;;;0.40;;
49678;SDS011;35570;48.218;16.326;2024-03-29T03:08:44;1.20;;;0.63;;
49678;SDS011;35570;48.218;16.326;2024-03-29T03:13:54;2.42;;;0.70;;
49678;SDS011;35570;48.218;16.326;2024-03-29T03:16:20;0.75;;;0.43;;
49678;SDS011;35570;48.218;16.326;2024-03-29T03:18:45;2.20;;;0.73;;
49678;SDS011;35570;48.218;16.326;2024-03-29T03:21:11;2.58;;;0.90;;
49678;SDS011;35570;48.218;16.326;2024-03-29T03:23:37;1.55;;;0.60;;
49678;SDS011;35570;48.218;16.326;2024-03-29T03:26:02;1.25;;;0.70;;
49678;SDS011;35570;48.218;16.326;2024-03-29T03:28:31;1.40;;;0.70;;
49678;SDS011;35570;48.218;16.326;2024-03-29T03:30:56;1.40;;;0.52;;
49678;SDS011;35570;48.218;16.326;2024-03-29T03:33:22;1.50;;;0.60;;
49678;SDS011;35570;48.218;16.326;2024-03-29T03:35:48;2.45;;;0.50;;
49678;SDS011;35570;48.218;16.326;2024-03-29T03:38:14;2.05;;;0.82;;
49678;SDS011;35570;48.218;16.326;2024-03-29T03:40:41;1.75;;;0.73;;
49678;SDS011;35570;48.218;16.326;2024-03-29T03:43:07;2.95;;;0.90;;
49678;SDS011;35570;48.218;16.326;2024-03-29T03:45:34;1.85;;;0.80;;
49678;SDS011;35570;48.218;16.326;2024-03-29T03:48:04;1.30;;;0.80;;
49678;SDS011;35570;48.218;16.326;2024-03-29T03:50:31;1.77;;;0.80;;
49678;SDS011;35570;48.218;16.326;2024-03-29T03:52:57;2.85;;;0.80;;
49678;SDS011;35570;48.218;16.326;2024-03-29T03:55:23;1.95;;;1.20;;
49678;SDS011;35570;48.218;16.326;2024-03-29T03:57:49;5.70;;;1.20;;
49678;SDS011;35570;48.218;16.326;2024-03-29T04:00:15;2.47;;;1.50;;
49678;SDS011;35570;48.218;16.326;2024-03-29T04:02:42;2.10;;;0.90;;
49678;SDS011;35570;48.218;16.326;2024-03-29T04:05:11;1.63;;;0.90;;
49678;SDS011;35570;48.218;16.326;2024-03-29T04:07:37;0.90;;;0.63;;
49678;SDS011;35570;48.218;16.326;2024-03-29T04:10:02;2.67;;;0.80;;
49678;SDS011;35570;48.218;16.326;2024-03-29T04:12:28;1.48;;;0.70;;
49678;SDS011;35570;48.218;16.326;2024-03-29T04:14:55;2.70;;;0.70;;
49678;SDS011;35570;48.218;16.326;2024-03-29T04:17:23;2.47;;;0.85;;
49678;SDS011;35570;48.218;16.326;2024-03-29T04:19:49;3.00;;;0.90;;
49678;SDS011;35570;48.218;16.326;2024-03-29T04:22:15;2.63;;;0.80;;
49678;SDS011;35570;48.218;16.326;2024-03-29T04:24:41;1.35;;;0.60;;
49678;SDS011;35570;48.218;16.326;2024-03-29T04:27:07;1.60;;;0.80;;
49678;SDS011;35570;48.218;16.326;2024-03-29T04:29:33;2.55;;;0.77;;
49678;SDS011;35570;48.218;16.326;2024-03-29T04:31:59;1.92;;;0.77;;
49678;SDS011;35570;48.218;16.326;2024-03-29T04:34:25;1.73;;;1.10;;
49678;SDS011;35570;48.218;16.326;2024-03-29T04:36:51;1.70;;;1.00;;
49678;SDS011;35570;48.218;16.326;2024-03-29T04:39:17;2.38;;;0.68;;
49678;SDS011;35570;48.218;16.326;2024-03-29T04:41:43;1.80;;;0.60;;
49678;SDS011;35570;48.218;16.326;2024-03-29T04:44:11;1.55;;;0.88;;
49678;SDS011;35570;48.218;16.326;2024-03-29T04:46:38;1.45;;;0.70;;
49678;SDS011;35570;48.218;16.326;2024-03-29T04:49:07;2.20;;;0.90;;
49678;SDS011;35570;48.218;16.326;2024-03-29T04:51:33;1.80;;;0.82;;
49678;SDS011;35570;48.218;16.326;2024-03-29T04:53:59;1.85;;;0.90;;
49678;SDS011;35570;48.218;16.326;2024-03-29T04:56:25;1.63;;;0.93;;
49678;SDS011;35570;48.218;16.326;2024-03-29T04:58:52;1.83;;;0.90;;
49678;SDS011;35570;48.218;16.326;2024-03-29T05:01:18;2.40;;;0.82;;
49678;SDS011;35570;48.218;16.326;2024-03-29T05:03:44;0.98;;;0.60;;
49678;SDS011;35570;48.218;16.326;2024-03-29T05:06:10;1.63;;;0.85;;
49678;SDS011;35570;48.218;16.326;2024-03-29T05:08:36;2.80;;;1.00;;
49678;SDS011;35570;48.218;16.326;2024-03-29T05:11:02;1.98;;;0.63;;
49678;SDS011;35570;48.218;16.326;2024-03-29T05:13:28;2.33;;;0.90;;
49678;SDS011;35570;48.218;16.326;2024-03-29T05:15:56;3.08;;;0.90;;
49678;SDS011;35570;48.218;16.326;2024-03-29T05:18:21;1.70;;;0.80;;
49678;SDS011;35570;48.218;16.326;2024-03-29T05:20:47;1.52;;;0.60;;
49678;SDS011;35570;48.218;16.326;2024-03-29T05:23:15;1.38;;;0.65;;
49678;SDS011;35570;48.218;16.326;2024-03-29T05:25:41;2.95;;;0.80;;
49678;SDS011;35570;48.218;16.326;2024-03-29T05:28:07;3.15;;;0.80;;
49678;SDS011;35570;48.218;16.326;2024-03-29T05:30:34;2.53;;;0.80;;
49678;SDS011;35570;48.218;16.326;2024-03-29T05:33:00;2.45;;;1.00;;
49678;SDS011;35570;48.218;16.326;2024-03-29T05:35:28;2.95;;;1.30;;
49678;SDS011;35570;48.218;16.326;2024-03-29T05:37:53;3.33;;;1.33;;
49678;SDS011;35570;48.218;16.326;2024-03-29T05:40:19;2.38;;;1.55;;
49678;SDS011;35570;48.218;16.326;2024-03-29T05:42:50;3.72;;;1.67;;
49678;SDS011;35570;48.218;16.326;2024-03-29T05:45:37;3.42;;;1.73;;
49678;SDS011;35570;48.218;16.326;2024-03-29T05:48:02;4.13;;;1.67;;
49678;SDS011;35570;48.218;16.326;2024-03-29T05:50:27;3.10;;;1.60;;
49678;SDS011;35570;48.218;16.326;2024-03-29T05:52:53;4.05;;;1.83;;
49678;SDS011;35570;48.218;16.326;2024-03-29T05:55:19;2.85;;;1.50;;
49678;SDS011;35570;48.218;16.326;2024-03-29T05:57:45;2.35;;;1.35;;
49678;SDS011;35570;48.218;16.326;2024-03-29T06:00:12;2.35;;;1.00;;
49678;SDS011;35570;48.218;16.326;2024-03-29T06:02:41;2.80;;;1.20;;
49678;SDS011;35570;48.218;16.326;2024-03-29T06:05:09;4.07;;;1.13;;
49678;SDS011;35570;48.218;16.326;2024-03-29T06:07:35;1.92;;;0.90;;
49678;SDS011;35570;48.218;16.326;2024-03-29T06:10:01;2.25;;;0.80;;
49678;SDS011;35570;48.218;16.326;2024-03-29T06:12:30;1.70;;;1.00;;
49678;SDS011;35570;48.218;16.326;2024-03-29T06:14:57;2.97;;;0.90;;
49678;SDS011;35570;48.218;16.326;2024-03-29T06:20:06;3.17;;;0.90;;
49678;SDS011;35570;48.218;16.326;2024-03-29T06:22:32;1.73;;;0.70;;
49678;SDS011;35570;48.218;16.326;2024-03-29T06:24:58;3.95;;;1.40;;
49678;SDS011;35570;48.218;16.326;2024-03-29T06:27:24;3.58;;;1.30;;
49678;SDS011;35570;48.218;16.326;2024-03-29T06:29:50;3.47;;;1.45;;
49678;SDS011;35570;48.218;16.326;2024-03-29T06:32:16;8.27;;;4.47;;
49678;SDS011;35570;48.218;16.326;2024-03-29T06:34:43;2.08;;;1.00;;
49678;SDS011;35570;48.218;16.326;2024-03-29T06:37:10;1.38;;;0.70;;
49678;SDS011;35570;48.218;16.326;2024-03-29T06:39:36;3.35;;;1.15;;
49678;SDS011;35570;48.218;16.326;2024-03-29T06:42:01;1.85;;;0.85;;
49678;SDS011;35570;48.218;16.326;2024-03-29T06:44:27;1.10;;;0.40;;
49678;SDS011;35570;48.218;16.326;2024-03-29T06:46:53;2.00;;;0.60;;
49678;SDS011;35570;48.218;16.326;2024-03-29T06:49:19;3.03;;;0.60;;
49678;SDS011;35570;48.218;16.326;2024-03-29T06:51:45;0.75;;;0.50;;
49678;SDS011;35570;48.218;16.326;2024-03-29T06:54:10;2.78;;;0.50;;
49678;SDS011;35570;48.218;16.326;2024-03-29T06:56:36;1.05;;;0.43;;
49678;SDS011;35570;48.218;16.326;2024-03-29T06:59:02;1.45;;;0.52;;
49678;SDS011;35570;48.218;16.326;2024-03-29T07:01:27;1.73;;;0.55;;
49678;SDS011;35570;48.218;16.326;2024-03-29T07:03:53;1.38;;;0.57;;
49678;SDS011;35570;48.218;16.326;2024-03-29T07:06:19;2.28;;;0.50;;
49678;SDS011;35570;48.218;16.326;2024-03-29T07:08:44;1.10;;;0.40;;
49678;SDS011;35570;48.218;16.326;2024-03-29T07:11:12;1.38;;;0.55;;
49678;SDS011;35570;48.218;16.326;2024-03-29T07:13:38;2.70;;;0.70;;
49678;SDS011;35570;48.218;16.326;2024-03-29T07:16:03;5.18;;;1.67;;
49678;SDS011;35570;48.218;16.326;2024-03-29T07:18:29;3.60;;;1.58;;
49678;SDS011;35570;48.218;16.326;2024-03-29T07:20:55;2.20;;;0.80;;
49678;SDS011;35570;48.218;16.326;2024-03-29T07:23:21;1.77;;;0.68;;
49678;SDS011;35570;48.218;16.326;2024-03-29T07:25:59;2.85;;;0.80;;
49678;SDS011;35570;48.218;16.326;2024-03-29T07:28:28;1.92;;;0.68;;
49678;SDS011;35570;48.218;16.326;2024-03-29T07:30:54;7.15;;;0.98;;
49678;SDS011;35570;48.218;16.326;2024-03-29T07:33:20;3.00;;;1.00;;
49678;SDS011;35570;48.218;16.326;2024-03-29T07:35:48;2.78;;;1.15;;
49678;SDS011;35570;48.218;16.326;2024-03-29T07:38:14;3.35;;;0.80;;
49678;SDS011;35570;48.218;16.326;2024-03-29T07:40:42;1.80;;;0.85;;
49678;SDS011;35570;48.218;16.326;2024-03-29T07:43:09;1.33;;;0.65;;
49678;SDS011;35570;48.218;16.326;2024-03-29T07:45:35;1.90;;;0.50;;
49678;SDS011;35570;48.218;16.326;2024-03-29T07:48:00;1.42;;;0.60;;
49678;SDS011;35570;48.218;16.326;2024-03-29T07:50:26;3.72;;;0.90;;
49678;SDS011;35570;48.218;16.326;2024-03-29T07:52:52;1.48;;;0.68;;
49678;SDS011;35570;48.218;16.326;2024-03-29T07:55:17;7.10;;;0.68;;
49678;SDS011;35570;48.218;16.326;2024-03-29T07:57:43;2.90;;;0.73;;
49678;SDS011;35570;48.218;16.326;2024-03-29T08:00:09;4.60;;;1.02;;
49678;SDS011;35570;48.218;16.326;2024-03-29T08:02:35;1.63;;;0.60;;
49678;SDS011;35570;48.218;16.326;2024-03-29T08:05:03;2.10;;;0.65;;
49678;SDS011;35570;48.218;16.326;2024-03-29T08:07:31;1.00;;;0.52;;
49678;SDS011;35570;48.218;16.326;2024-03-29T08:09:57;1.58;;;0.60;;
49678;SDS011;35570;48.218;16.326;2024-03-29T08:12:23;2.13;;;0.90;;
49678;SDS011;35570;48.218;16.326;2024-03-29T08:14:48;2.17;;;0.55;;
49678;SDS011;35570;48.218;16.326;2024-03-29T08:17:14;1.58;;;0.70;;
49678;SDS011;35570;48.218;16.326;2024-03-29T08:19:40;2.53;;;0.80;;
49678;SDS011;35570;48.218;16.326;2024-03-29T08:22:07;1.00;;;0.55;;
49678;SDS011;35570;48.218;16.326;2024-03-29T08:24:35;2.45;;;0.70;;
49678;SDS011;35570;48.218;16.326;2024-03-29T08:27:01;3.63;;;1.38;;
49678;SDS011;35570;48.218;16.326;2024-03-29T08:29:27;3.55;;;1.38;;
49678;SDS011;35570;48.218;16.326;2024-03-29T08:31:53;1.33;;;0.63;;
49678;SDS011;35570;48.218;16.326;2024-03-29T08:34:19;1.85;;;0.95;;
49678;SDS011;35570;48.218;16.326;2024-03-29T08:36:44;5.20;;;0.95;;
49678;SDS011;35570;48.218;16.326;2024-03-29T08:39:10;5.18;;;0.95;;
49678;SDS011;35570;48.218;16.326;2024-03-29T08:41:36;2.88;;;0.90;;
49678;SDS011;35570;48.218;16.326;2024-03-29T08:44:04;4.13;;;0.80;;
49678;SDS011;35570;48.218;16.326;2024-03-29T08:46:32;4.38;;;0.77;;
49678;SDS011;35570;48.218;16.326;2024-03-29T08:48:57;5.68;;;0.85;;
49678;SDS011;35570;48.218;16.326;2024-03-29T08:51:23;4.35;;;1.20;;
49678;SDS011;35570;48.218;16.326;2024-03-29T08:53:49;3.78;;;0.82;;
49678;SDS011;35570;48.218;16.326;2024-03-29T08:56:15;5.32;;;1.23;;
49678;SDS011;35570;48.218;16.326;2024-03-29T08:58:41;3.95;;;0.75;;
49678;SDS011;35570;48.218;16.326;2024-03-29T09:01:07;2.22;;;0.82;;
49678;SDS011;35570;48.218;16.326;2024-03-29T09:03:33;2.08;;;0.73;;
49678;SDS011;35570;48.218;16.326;2024-03-29T09:05:59;5.82;;;0.80;;
49678;SDS011;35570;48.218;16.326;2024-03-29T09:08:25;4.57;;;0.80;;
49678;SDS011;35570;48.218;16.326;2024-03-29T09:10:50;3.88;;;0.60;;
49678;SDS011;35570;48.218;16.326;2024-03-29T09:13:16;2.10;;;0.70;;
49678;SDS011;35570;48.218;16.326;2024-03-29T09:15:41;3.97;;;0.75;;
49678;SDS011;35570;48.218;16.326;2024-03-29T09:18:07;1.95;;;0.60;;
49678;SDS011;35570;48.218;16.326;2024-03-29T09:20:58;2.55;;;0.70;;
49678;SDS011;35570;48.218;16.326;2024-03-29T09:23:25;4.10;;;0.90;;
49678;SDS011;35570;48.218;16.326;2024-03-29T09:25:53;2.10;;;0.90;;
49678;SDS011;35570;48.218;16.326;2024-03-29T09:28:23;3.10;;;0.90;;
49678;SDS011;35570;48.218;16.326;2024-03-29T09:30:49;1.83;;;0.80;;
49678;SDS011;35570;48.218;16.326;2024-03-29T09:33:15;3.05;;;0.70;;
49678;SDS011;35570;48.218;16.326;2024-03-29T09:35:40;1.98;;;1.17;;
49678;SDS011;35570;48.218;16.326;2024-03-29T09:38:07;3.78;;;1.60;;
49678;SDS011;35570;48.218;16.326;2024-03-29T09:40:33;4.43;;;1.30;;
49678;SDS011;35570;48.218;16.326;2024-03-29T09:43:00;3.88;;;1.00;;
49678;SDS011;35570;48.218;16.326;2024-03-29T09:45:33;3.75;;;0.82;;
49678;SDS011;35570;48.218;16.326;2024-03-29T09:48:03;3.65;;;0.90;;
49678;SDS011;35570;48.218;16.326;2024-03-29T09:50:31;3.13;;;0.82;;
49678;SDS011;35570;48.218;16.326;2024-03-29T09:52:57;3.85;;;1.00;;
49678;SDS011;35570;48.218;16.326;2024-03-29T09:55:23;7.10;;;1.00;;
49678;SDS011;35570;48.218;16.326;2024-03-29T09:57:50;4.47;;;1.05;;
49678;SDS011;35570;48.218;16.326;2024-03-29T10:00:17;3.70;;;0.93;;
49678;SDS011;35570;48.218;16.326;2024-03-29T10:02:43;4.68;;;0.90;;
49678;SDS011;35570;48.218;16.326;2024-03-29T10:05:09;3.92;;;1.00;;
49678;SDS011;35570;48.218;16.326;2024-03-29T10:07:37;4.55;;;0.95;;
49678;SDS011;35570;48.218;16.326;2024-03-29T10:10:05;3.97;;;0.90;;
49678;SDS011;35570;48.218;16.326;2024-03-29T10:12:31;4.20;;;0.70;;
49678;SDS011;35570;48.218;16.326;2024-03-29T10:14:57;1.92;;;0.55;;
49678;SDS011;35570;48.218;16.326;2024-03-29T10:17:31;3.40;;;0.90;;
49678;SDS011;35570;48.218;16.326;2024-03-29T10:20:03;4.63;;;1.00;;
49678;SDS011;35570;48.218;16.326;2024-03-29T10:22:30;3.78;;;0.85;;
49678;SDS011;35570;48.218;16.326;2024-03-29T10:25:01;3.85;;;0.82;;
49678;SDS011;35570;48.218;16.326;2024-03-29T10:27:27;3.75;;;0.90;;
49678;SDS011;35570;48.218;16.326;2024-03-29T10:29:54;3.78;;;1.20;;
49678;SDS011;35570;48.218;16.326;2024-03-29T10:32:20;3.72;;;0.93;;
49678;SDS011;35570;48.218;16.326;2024-03-29T10:34:48;4.47;;;1.08;;
49678;SDS011;35570;48.218;16.326;2024-03-29T10:37:14;4.22;;;0.90;;
49678;SDS011;35570;48.218;16.326;2024-03-29T10:39:44;2.83;;;0.90;;
49678;SDS011;35570;48.218;16.326;2024-03-29T10:42:10;2.92;;;0.85;;
49678;SDS011;35570;48.218;16.326;2024-03-29T10:44:37;3.03;;;0.73;;
49678;SDS011;35570;48.218;16.326;2024-03-29T10:47:05;2.17;;;0.98;;
49678;SDS011;35570;48.218;16.326;2024-03-29T10:49:33;4.97;;;0.70;;
49678;SDS011;35570;48.218;16.326;2024-03-29T10:52:00;3.67;;;1.20;;
49678;SDS011;35570;48.218;16.326;2024-03-29T10:54:27;2.28;;;0.70;;
49678;SDS011;35570;48.218;16.326;2024-03-29T10:56:59;3.08;;;0.70;;
49678;SDS011;35570;48.218;16.326;2024-03-29T10:59:34;4.07;;;1.08;;
49678;SDS011;35570;48.218;16.326;2024-03-29T11:02:13;2.75;;;0.70;;
49678;SDS011;35570;48.218;16.326;2024-03-29T11:04:49;3.83;;;1.23;;
49678;SDS011;35570;48.218;16.326;2024-03-29T11:07:19;4.50;;;1.00;;
49678;SDS011;35570;48.218;16.326;2024-03-29T11:09:48;3.75;;;1.10;;
49678;SDS011;35570;48.218;16.326;2024-03-29T11:12:18;3.65;;;0.88;;
49678;SDS011;35570;48.218;16.326;2024-03-29T11:14:47;3.50;;;1.13;;
49678;SDS011;35570;48.218;16.326;2024-03-29T11:17:21;5.18;;;1.25;;
49678;SDS011;35570;48.218;16.326;2024-03-29T11:19:47;1.85;;;0.60;;
49678;SDS011;35570;48.218;16.326;2024-03-29T11:22:14;3.33;;;0.77;;
49678;SDS011;35570;48.218;16.326;2024-03-29T11:24:40;2.58;;;1.05;;
49678;SDS011;35570;48.218;16.326;2024-03-29T11:27:10;4.20;;;1.00;;
49678;SDS011;35570;48.218;16.326;2024-03-29T11:29:36;3.97;;;0.85;;
49678;SDS011;35570;48.218;16.326;2024-03-29T11:32:06;2.92;;;0.90;;
49678;SDS011;35570;48.218;16.326;2024-03-29T11:34:32;4.30;;;1.10;;
49678;SDS011;35570;48.218;16.326;2024-03-29T11:37:09;4.63;;;0.98;;
49678;SDS011;35570;48.218;16.326;2024-03-29T11:39:36;2.70;;;1.20;;
49678;SDS011;35570;48.218;16.326;2024-03-29T11:42:02;10.02;;;2.00;;
49678;SDS011;35570;48.218;16.326;2024-03-29T11:44:27;8.30;;;3.28;;
49678;SDS011;35570;48.218;16.326;2024-03-29T11:46:54;6.10;;;1.63;;
49678;SDS011;35570;48.218;16.326;2024-03-29T11:49:23;4.03;;;1.00;;
49678;SDS011;35570;48.218;16.326;2024-03-29T11:51:49;2.03;;;0.75;;
49678;SDS011;35570;48.218;16.326;2024-03-29T11:54:15;2.67;;;0.80;;
49678;SDS011;35570;48.218;16.326;2024-03-29T11:56:42;3.78;;;0.90;;
49678;SDS011;35570;48.218;16.326;2024-03-29T11:59:08;4.68;;;1.05;;
49678;SDS011;35570;48.218;16.326;2024-03-29T12:01:34;2.88;;;1.10;;
49678;SDS011;35570;48.218;16.326;2024-03-29T12:04:04;3.20;;;0.90;;
49678;SDS011;35570;48.218;16.326;2024-03-29T12:06:29;2.55;;;0.98;;
49678;SDS011;35570;48.218;16.326;2024-03-29T12:08:56;3.95;;;1.20;;
49678;SDS011;35570;48.218;16.326;2024-03-29T12:11:22;2.65;;;0.95;;
49678;SDS011;35570;48.218;16.326;2024-03-29T12:13:48;3.05;;;1.08;;
49678;SDS011;35570;48.218;16.326;2024-03-29T12:16:14;7.22;;;2.13;;
49678;SDS011;35570;48.218;16.326;2024-03-29T12:18:40;2.08;;;1.10;;
49678;SDS011;35570;48.218;16.326;2024-03-29T12:21:06;4.68;;;1.27;;
49678;SDS011;35570;48.218;16.326;2024-03-29T12:23:34;2.45;;;1.17;;
49678;SDS011;35570;48.218;16.326;2024-03-29T12:26:00;2.72;;;1.02;;
49678;SDS011;35570;48.218;16.326;2024-03-29T12:28:26;4.82;;;1.45;;
49678;SDS011;35570;48.218;16.326;2024-03-29T12:30:52;3.92;;;1.13;;
49678;SDS011;35570;48.218;16.326;2024-03-29T12:33:20;3.13;;;0.90;;
49678;SDS011;35570;48.218;16.326;2024-03-29T12:35:47;3.13;;;0.77;;
49678;SDS011;35570;48.218;16.326;2024-03-29T12:38:15;3.58;;;1.00;;
49678;SDS011;35570;48.218;16.326;2024-03-29T12:40:42;4.40;;;0.80;;
49678;SDS011;35570;48.218;16.326;2024-03-29T12:43:09;2.55;;;1.00;;
49678;SDS011;35570;48.218;16.326;2024-03-29T12:45:36;3.47;;;0.85;;
49678;SDS011;35570;48.218;16.326;2024-03-29T12:48:03;3.20;;;1.30;;
49678;SDS011;35570;48.218;16.326;2024-03-29T12:50:42;4.07;;;1.25;;
49678;SDS011;35570;48.218;16.326;2024-03-29T12:53:10;3.33;;;1.00;;
49678;SDS011;35570;48.218;16.326;2024-03-29T12:55:41;3.35;;;0.70;;
49678;SDS011;35570;48.218;16.326;2024-03-29T12:58:14;3.08;;;0.88;;
49678;SDS011;35570;48.218;16.326;2024-03-29T13:00:41;2.30;;;0.57;;
49678;SDS011;35570;48.218;16.326;2024-03-29T13:03:07;2.65;;;0.70;;
49678;SDS011;35570;48.218;16.326;2024-03-29T13:05:37;1.40;;;0.55;;
49678;SDS011;35570;48.218;16.326;2024-03-29T13:08:13;1.48;;;0.60;;
49678;SDS011;35570;48.218;16.326;2024-03-29T13:10:42;2.15;;;0.70;;
49678;SDS011;35570;48.218;16.326;2024-03-29T13:13:09;3.05;;;0.80;;
49678;SDS011;35570;48.218;16.326;2024-03-29T13:15:35;3.33;;;0.80;;
49678;SDS011;35570;48.218;16.326;2024-03-29T13:18:02;3.50;;;0.88;;
49678;SDS011;35570;48.218;16.326;2024-03-29T13:20:29;2.60;;;0.85;;
49678;SDS011;35570;48.218;16.326;2024-03-29T13:22:57;2.15;;;0.50;;
49678;SDS011;35570;48.218;16.326;2024-03-29T13:25:23;2.88;;;0.90;;
49678;SDS011;35570;48.218;16.326;2024-03-29T13:27:50;4.97;;;0.90;;
49678;SDS011;35570;48.218;16.326;2024-03-29T13:30:19;1.98;;;0.93;;
49678;SDS011;35570;48.218;16.326;2024-03-29T13:32:45;3.60;;;0.95;;
49678;SDS011;35570;48.218;16.326;2024-03-29T13:35:11;1.77;;;0.70;;
49678;SDS011;35570;48.218;16.326;2024-03-29T13:37:41;3.25;;;0.80;;
49678;SDS011;35570;48.218;16.326;2024-03-29T13:40:08;2.00;;;0.70;;
49678;SDS011;35570;48.218;16.326;2024-03-29T13:42:35;2.40;;;0.70;;
49678;SDS011;35570;48.218;16.326;2024-03-29T13:45:02;3.17;;;1.00;;
49678;SDS011;35570;48.218;16.326;2024-03-29T13:47:28;2.38;;;1.00;;
49678;SDS011;35570;48.218;16.326;2024-03-29T13:49:54;3.45;;;1.30;;
49678;SDS011;35570;48.218;16.326;2024-03-29T13:52:21;2.22;;;1.00;;
49678;SDS011;35570;48.218;16.326;2024-03-29T13:54:47;4.75;;;1.50;;
49678;SDS011;35570;48.218;16.326;2024-03-29T13:57:14;3.88;;;1.70;;
49678;SDS011;35570;48.218;16.326;2024-03-29T13:59:43;5.43;;;1.13;;
49678;SDS011;35570;48.218;16.326;2024-03-29T14:02:13;3.35;;;0.82;;
49678;SDS011;35570;48.218;16.326;2024-03-29T14:04:40;1.85;;;0.65;;
49678;SDS011;35570;48.218;16.326;2024-03-29T14:07:08;2.97;;;0.93;;
49678;SDS011;35570;48.218;16.326;2024-03-29T14:09:38;2.00;;;0.95;;
49678;SDS011;35570;48.218;16.326;2024-03-29T14:12:07;2.65;;;1.27;;
49678;SDS011;35570;48.218;16.326;2024-03-29T14:14:34;1.55;;;0.70;;
49678;SDS011;35570;48.218;16.326;2024-03-29T14:17:00;2.72;;;0.98;;
49678;SDS011;35570;48.218;16.326;2024-03-29T14:19:35;2.67;;;1.40;;
49678;SDS011;35570;48.218;16.326;2024-03-29T14:22:01;2.72;;;1.33;;
49678;SDS011;35570;48.218;16.326;2024-03-29T14:24:27;3.38;;;2.50;;
49678;SDS011;35570;48.218;16.326;2024-03-29T14:26:55;3.55;;;2.30;;
49678;SDS011;35570;48.218;16.326;2024-03-29T14:29:24;4.07;;;2.60;;
49678;SDS011;35570;48.218;16.326;2024-03-29T14:31:50;4.28;;;3.50;;
49678;SDS011;35570;48.218;16.326;2024-03-29T14:34:16;13.00;;;10.20;;
49678;SDS011;35570;48.218;16.326;2024-03-29T14:36:43;8.13;;;7.32;;